Time;durP1;ratioP1;P1;durP2;ratioP2;P2;SDS_P1;SDS_P2;PMS_P1;PMS_P2;Temp;Humidity;BMP_temperature;BMP_pressure;BME280_temperature;BME280_humidity;BME280_pressure;Samples;Min_cycle;Max_cycle;Signal;HPM_P1;HPM_P2
2023/12/28 00:00:27;;;;;;;13.23;8.45;;;;;;;;;;10537848;28;20056;-63
2023/12/28 00:05:27;;;;;;;11.82;7.72;;;;;;;;;;10537786;28;20360;-63
2023/12/28 00:10:28;;;;;;;10.25;7.05;;;;;;;;;;10538431;28;20206;-63
2023/12/28 00:15:28;;;;;;;11.98;7.65;;;;;;;;;;10537197;28;20032;-63
2023/12/28 00:20:29;;;;;;;12.05;7.63;;;;;;;;;;10536949;28;20024;-63
2023/12/28 00:25:30;;;;;;;11.10;8.20;;;;;;;;;;10536906;28;20068;-64
2023/12/28 00:30:32;;;;;;;13.10;7.63;;;;;;;;;;10537022;28;20024;-64
2023/12/28 00:35:32;;;;;;;12.02;7.78;;;;;;;;;;10536399;28;20481;-64
2023/12/28 00:40:33;;;;;;;13.07;7.60;;;;;;;;;;10535480;28;20020;-64
2023/12/28 00:45:33;;;;;;;9.30;7.43;;;;;;;;;;10536038;28;20043;-63
2023/12/28 00:50:34;;;;;;;18.33;8.15;;;;;;;;;;10536227;28;20035;-64
2023/12/28 00:55:34;;;;;;;9.60;7.25;;;;;;;;;;10535046;28;20210;-64
2023/12/28 01:00:35;;;;;;;12.32;7.93;;;;;;;;;;10535135;28;20044;-65
2023/12/28 01:05:36;;;;;;;11.57;7.07;;;;;;;;;;10535814;28;20081;-64
2023/12/28 01:10:36;;;;;;;10.30;7.45;;;;;;;;;;10535526;28;20042;-64
2023/12/28 01:15:37;;;;;;;9.77;7.18;;;;;;;;;;10535366;28;20426;-65
2023/12/28 01:20:37;;;;;;;9.35;7.10;;;;;;;;;;10534580;28;20023;-65
2023/12/28 01:25:38;;;;;;;11.75;6.95;;;;;;;;;;10534522;28;20033;-65
2023/12/28 01:30:38;;;;;;;10.00;6.55;;;;;;;;;;10534208;28;20020;-63
2023/12/28 01:35:39;;;;;;;12.57;7.95;;;;;;;;;;10534106;28;20074;-63
2023/12/28 01:40:45;;;;;;;10.38;6.50;;;;;;;;;;10533796;28;20020;-63
2023/12/28 01:45:46;;;;;;;9.52;6.78;;;;;;;;;;10534269;28;20027;-64
2023/12/28 01:50:46;;;;;;;13.40;6.43;;;;;;;;;;10532994;28;20028;-63
2023/12/28 01:55:48;;;;;;;8.38;6.68;;;;;;;;;;10533479;28;20040;-65
2023/12/28 02:00:50;;;;;;;8.07;6.50;;;;;;;;;;10528429;22;20048;-56
2023/12/28 02:05:51;;;;;;;8.85;6.30;;;;;;;;;;10533278;28;20038;-58
2023/12/28 02:10:52;;;;;;;10.38;7.20;;;;;;;;;;10500645;28;20020;-56
2023/12/28 02:16:15;;;;;;;9.52;6.35;;;;;;;;;;10490938;28;20384;-57
2023/12/28 02:21:17;;;;;;;10.40;7.05;;;;;;;;;;10490811;28;20035;-58
2023/12/28 02:26:18;;;;;;;8.32;5.85;;;;;;;;;;10491005;28;20499;-57
2023/12/28 02:31:32;;;;;;;8.57;6.57;;;;;;;;;;10491248;28;20028;-57
2023/12/28 02:36:34;;;;;;;6.75;5.65;;;;;;;;;;10489735;28;20095;-55
2023/12/28 02:41:35;;;;;;;8.57;6.25;;;;;;;;;;10490587;28;20306;-59
2023/12/28 02:46:36;;;;;;;9.18;6.55;;;;;;;;;;10472611;28;20035;-58
2023/12/28 02:51:37;;;;;;;9.27;6.50;;;;;;;;;;10490235;28;20043;-57
2023/12/28 02:56:41;;;;;;;8.65;6.53;;;;;;;;;;10490458;28;20028;-58
2023/12/28 03:01:41;;;;;;;11.98;6.13;;;;;;;;;;10489406;28;20545;-58
2023/12/28 03:06:46;;;;;;;8.23;6.22;;;;;;;;;;10497856;28;20078;-57
2023/12/28 03:11:46;;;;;;;9.90;6.07;;;;;;;;;;10498106;28;20021;-58
2023/12/28 03:16:47;;;;;;;7.07;5.75;;;;;;;;;;10497707;28;20363;-59
2023/12/28 03:21:47;;;;;;;10.30;6.25;;;;;;;;;;10497395;28;20530;-58
2023/12/28 03:26:48;;;;;;;8.43;6.80;;;;;;;;;;10496973;28;20024;-58
2023/12/28 03:31:49;;;;;;;8.80;6.18;;;;;;;;;;10496897;28;20078;-58
2023/12/28 03:36:50;;;;;;;7.95;6.13;;;;;;;;;;10497409;28;20044;-58
2023/12/28 03:41:52;;;;;;;8.25;5.53;;;;;;;;;;10496731;28;20090;-58
2023/12/28 03:46:53;;;;;;;13.85;6.50;;;;;;;;;;10496629;28;20040;-58
2023/12/28 03:51:53;;;;;;;9.13;6.28;;;;;;;;;;10496371;28;20047;-58
2023/12/28 03:56:54;;;;;;;8.13;6.28;;;;;;;;;;10496991;28;20155;-58
2023/12/28 04:01:55;;;;;;;6.80;5.88;;;;;;;;;;10495758;28;20483;-56
2023/12/28 04:06:55;;;;;;;9.02;6.50;;;;;;;;;;10495786;28;20044;-57
2023/12/28 04:11:56;;;;;;;6.78;5.43;;;;;;;;;;10495706;28;20082;-56
2023/12/28 04:16:56;;;;;;;7.97;5.63;;;;;;;;;;10494350;28;20021;-58
2023/12/28 04:21:57;;;;;;;8.25;5.60;;;;;;;;;;10495173;28;20043;-58
2023/12/28 04:26:58;;;;;;;8.85;5.88;;;;;;;;;;10495233;28;20029;-58
2023/12/28 04:31:58;;;;;;;7.72;5.45;;;;;;;;;;10494699;28;20039;-58
2023/12/28 04:36:59;;;;;;;9.23;5.95;;;;;;;;;;10494654;28;20025;-55
2023/12/28 04:41:59;;;;;;;7.72;5.97;;;;;;;;;;10494990;28;20036;-56
2023/12/28 04:47:01;;;;;;;7.47;5.97;;;;;;;;;;10494134;28;20024;-56
2023/12/28 04:52:02;;;;;;;6.68;5.50;;;;;;;;;;10494311;28;20162;-56
2023/12/28 04:57:03;;;;;;;7.13;5.88;;;;;;;;;;10494588;28;20081;-56
2023/12/28 05:02:04;;;;;;;6.65;5.20;;;;;;;;;;10493404;28;20068;-56
2023/12/28 05:07:04;;;;;;;7.25;5.30;;;;;;;;;;10494504;28;20480;-56
2023/12/28 05:12:06;;;;;;;6.65;5.43;;;;;;;;;;10493221;28;20032;-57
2023/12/28 05:17:06;;;;;;;6.75;5.40;;;;;;;;;;10491675;28;20436;-56
2023/12/28 05:22:10;;;;;;;7.55;5.72;;;;;;;;;;10493048;28;20036;-58
2023/12/28 05:27:11;;;;;;;8.00;5.53;;;;;;;;;;10492843;28;20021;-57
2023/12/28 05:32:11;;;;;;;14.45;5.68;;;;;;;;;;10492308;28;20472;-58
2023/12/28 05:37:12;;;;;;;6.55;5.10;;;;;;;;;;10492168;28;20503;-58
2023/12/28 05:42:13;;;;;;;8.32;5.20;;;;;;;;;;10491967;28;20043;-56
2023/12/28 05:47:13;;;;;;;7.40;5.55;;;;;;;;;;10492269;28;20461;-55
2023/12/28 05:52:16;;;;;;;6.93;5.20;;;;;;;;;;10491702;28;20036;-56
2023/12/28 05:57:17;;;;;;;7.63;6.20;;;;;;;;;;10492634;28;20037;-56
2023/12/28 06:02:17;;;;;;;8.10;5.53;;;;;;;;;;10491202;28;20519;-56
2023/12/28 06:07:18;;;;;;;6.30;4.85;;;;;;;;;;10491335;28;20024;-56
2023/12/28 06:12:18;;;;;;;6.38;4.40;;;;;;;;;;10491630;28;20032;-56
2023/12/28 06:17:19;;;;;;;6.63;5.20;;;;;;;;;;10490935;28;20467;-57
2023/12/28 06:22:20;;;;;;;6.07;4.97;;;;;;;;;;10491044;28;20033;-57
2023/12/28 06:27:21;;;;;;;8.40;5.47;;;;;;;;;;10491431;28;20184;-59
2023/12/28 06:32:21;;;;;;;6.13;4.88;;;;;;;;;;10490873;28;20081;-58
2023/12/28 06:37:22;;;;;;;6.50;5.30;;;;;;;;;;10491851;28;20609;-58
2023/12/28 06:42:22;;;;;;;5.85;4.93;;;;;;;;;;10499263;28;20035;-59
2023/12/28 06:47:23;;;;;;;7.97;5.38;;;;;;;;;;10499028;28;20024;-59
2023/12/28 06:52:24;;;;;;;6.03;5.00;;;;;;;;;;10499342;28;20031;-58
2023/12/28 06:57:24;;;;;;;13.93;6.85;;;;;;;;;;10498902;28;20036;-54
2023/12/28 07:02:25;;;;;;;12.48;7.60;;;;;;;;;;10498200;28;20040;-58
2023/12/28 07:07:25;;;;;;;12.23;8.10;;;;;;;;;;10497698;28;20028;-56
2023/12/28 07:12:26;;;;;;;15.05;7.43;;;;;;;;;;10495959;28;20020;-58
2023/12/28 07:17:26;;;;;;;11.10;7.75;;;;;;;;;;10494355;28;20024;-61
2023/12/28 07:22:28;;;;;;;17.02;8.18;;;;;;;;;;10494201;28;20039;-56
2023/12/28 07:27:29;;;;;;;14.73;9.30;;;;;;;;;;10497187;28;20032;-55
2023/12/28 07:32:30;;;;;;;14.75;10.55;;;;;;;;;;10497152;28;20452;-54
2023/12/28 07:37:30;;;;;;;12.88;10.40;;;;;;;;;;10497691;28;20086;-57
2023/12/28 07:42:31;;;;;;;22.95;12.68;;;;;;;;;;10496856;28;20355;-54
2023/12/28 07:47:31;;;;;;;23.55;13.43;;;;;;;;;;10496365;28;20029;-55
2023/12/28 07:52:32;;;;;;;17.15;14.25;;;;;;;;;;10496875;28;20021;-57
2023/12/28 07:57:34;;;;;;;20.33;14.63;;;;;;;;;;10495937;28;20399;-53
2023/12/28 08:02:34;;;;;;;22.02;14.52;;;;;;;;;;10495187;28;20041;-53
2023/12/28 08:07:35;;;;;;;24.67;14.63;;;;;;;;;;10495893;28;20029;-57
2023/12/28 08:12:35;;;;;;;21.27;13.90;;;;;;;;;;10495060;28;20028;-56
2023/12/28 08:17:36;;;;;;;32.05;12.55;;;;;;;;;;10494327;28;20033;-55
2023/12/28 08:22:37;;;;;;;24.40;13.07;;;;;;;;;;10493919;28;20044;-53
2023/12/28 08:27:37;;;;;;;26.50;13.32;;;;;;;;;;10494428;28;20031;-53
2023/12/28 08:32:38;;;;;;;26.75;13.10;;;;;;;;;;10494586;28;20021;-55
2023/12/28 08:37:38;;;;;;;20.50;13.35;;;;;;;;;;10494533;28;20093;-57
2023/12/28 08:42:39;;;;;;;27.63;12.13;;;;;;;;;;10494483;28;20029;-57
2023/12/28 08:47:40;;;;;;;19.70;12.82;;;;;;;;;;10494733;28;20024;-59
2023/12/28 08:52:41;;;;;;;18.13;12.43;;;;;;;;;;10494584;28;20029;-54
2023/12/28 08:57:41;;;;;;;28.15;12.43;;;;;;;;;;10493793;28;20157;-59
2023/12/28 09:02:42;;;;;;;30.73;11.88;;;;;;;;;;10492615;28;20044;-53
2023/12/28 09:07:43;;;;;;;24.50;12.13;;;;;;;;;;10493826;28;20036;-54
2023/12/28 09:12:43;;;;;;;22.95;11.27;;;;;;;;;;10493273;28;20445;-54
2023/12/28 09:17:44;;;;;;;30.10;10.93;;;;;;;;;;10493071;28;20025;-54
2023/12/28 09:22:45;;;;;;;20.80;12.02;;;;;;;;;;10492655;28;20032;-55
2023/12/28 09:27:46;;;;;;;20.00;11.25;;;;;;;;;;10492425;28;20099;-51
2023/12/28 09:32:47;;;;;;;14.48;10.55;;;;;;;;;;10492581;28;20097;-54
2023/12/28 09:37:48;;;;;;;15.82;10.35;;;;;;;;;;10492652;28;20024;-53
2023/12/28 09:43:29;;;;;;;18.90;11.10;;;;;;;;;;10491969;28;20434;-55
2023/12/28 09:48:31;;;;;;;17.90;10.05;;;;;;;;;;10491682;28;20456;-54
2023/12/28 09:53:32;;;;;;;19.92;10.50;;;;;;;;;;10491868;28;20028;-53
2023/12/28 09:58:35;;;;;;;19.95;10.40;;;;;;;;;;10491127;28;20041;-55
2023/12/28 10:03:36;;;;;;;18.50;10.25;;;;;;;;;;10474345;28;20056;-54
2023/12/28 10:08:36;;;;;;;14.75;9.27;;;;;;;;;;10491179;28;20056;-54
2023/12/28 10:13:37;;;;;;;12.80;9.40;;;;;;;;;;10490762;28;20032;-54
2023/12/28 10:18:44;;;;;;;14.75;8.60;;;;;;;;;;10490884;28;20043;-50
2023/12/28 10:23:45;;;;;;;14.10;9.43;;;;;;;;;;10491454;28;20031;-57
2023/12/28 10:28:45;;;;;;;13.40;8.90;;;;;;;;;;10491120;28;20052;-54
2023/12/28 10:33:47;;;;;;;9.95;8.75;;;;;;;;;;10491274;28;20025;-55
2023/12/28 10:38:51;;;;;;;27.45;9.02;;;;;;;;;;10490958;28;20036;-54
2023/12/28 10:44:05;;;;;;;13.73;9.45;;;;;;;;;;10490904;28;20071;-54
2023/12/28 10:49:15;;;;;;;16.17;9.93;;;;;;;;;;10491328;28;20021;-54
2023/12/28 10:54:27;;;;;;;12.80;8.75;;;;;;;;;;10490214;28;20060;-57
2023/12/28 10:59:50;;;;;;;11.52;8.68;;;;;;;;;;10490250;28;20142;-54
2023/12/28 11:04:53;;;;;;;14.98;8.88;;;;;;;;;;10489960;28;20032;-54
2023/12/28 11:09:54;;;;;;;15.63;9.15;;;;;;;;;;10489025;28;20063;-54
2023/12/28 11:14:57;;;;;;;16.13;8.82;;;;;;;;;;10488995;28;20532;-57
2023/12/28 11:19:58;;;;;;;13.38;8.45;;;;;;;;;;10490556;28;20032;-54
2023/12/28 11:24:59;;;;;;;19.90;8.27;;;;;;;;;;10492771;28;20052;-53
2023/12/28 11:29:59;;;;;;;11.27;8.45;;;;;;;;;;10497309;28;20020;-53
2023/12/28 11:35:00;;;;;;;14.77;8.38;;;;;;;;;;10497148;28;20020;-56
2023/12/28 11:40:16;;;;;;;9.25;7.82;;;;;;;;;;10496842;28;20035;-53
2023/12/28 11:45:18;;;;;;;12.18;8.35;;;;;;;;;;10496849;28;20048;-55
2023/12/28 11:50:19;;;;;;;9.25;7.40;;;;;;;;;;10496553;28;20043;-54
2023/12/28 11:55:23;;;;;;;12.38;8.35;;;;;;;;;;10496363;28;20025;-54
2023/12/28 12:00:25;;;;;;;10.43;7.60;;;;;;;;;;10496393;28;20056;-55
2023/12/28 12:05:27;;;;;;;12.70;7.90;;;;;;;;;;10495748;28;20139;-53
2023/12/28 12:10:27;;;;;;;9.77;7.18;;;;;;;;;;10494304;28;20024;-54
2023/12/28 12:15:30;;;;;;;12.77;7.50;;;;;;;;;;10495122;28;20074;-55
2023/12/28 12:20:30;;;;;;;10.18;6.93;;;;;;;;;;10495457;28;20060;-58
2023/12/28 12:25:31;;;;;;;10.48;7.15;;;;;;;;;;10495537;28;20059;-53
2023/12/28 12:30:32;;;;;;;10.95;7.60;;;;;;;;;;10477466;28;20441;-55
2023/12/28 12:35:32;;;;;;;12.32;6.88;;;;;;;;;;10493930;28;20488;-53
2023/12/28 12:40:33;;;;;;;9.13;6.88;;;;;;;;;;10494900;28;20028;-53
2023/12/28 12:45:34;;;;;;;9.18;7.00;;;;;;;;;;10494897;28;20032;-53
2023/12/28 12:50:35;;;;;;;14.57;7.53;;;;;;;;;;10476303;28;20054;-55
2023/12/28 12:55:39;;;;;;;10.52;7.28;;;;;;;;;;10494744;28;20048;-54
2023/12/28 13:00:40;;;;;;;13.32;7.47;;;;;;;;;;10493162;28;20080;-54
2023/12/28 13:05:43;;;;;;;7.57;6.22;;;;;;;;;;10492581;28;20043;-52
2023/12/28 13:10:44;;;;;;;11.25;7.07;;;;;;;;;;10492131;28;20033;-56
2023/12/28 13:15:45;;;;;;;8.50;6.22;;;;;;;;;;10492826;28;20032;-54
2023/12/28 13:20:45;;;;;;;9.32;6.78;;;;;;;;;;10492667;28;20082;-54
2023/12/28 13:25:46;;;;;;;8.65;6.75;;;;;;;;;;10493203;28;20051;-54
2023/12/28 13:30:47;;;;;;;8.40;6.50;;;;;;;;;;10492998;28;20077;-58
2023/12/28 13:35:47;;;;;;;10.07;6.78;;;;;;;;;;10492198;28;20035;-58
2023/12/28 13:40:48;;;;;;;14.27;6.03;;;;;;;;;;10491916;28;20035;-54
2023/12/28 13:45:49;;;;;;;9.30;6.50;;;;;;;;;;10492421;28;20032;-55
2023/12/28 13:50:51;;;;;;;8.30;6.57;;;;;;;;;;10491988;28;20040;-57
2023/12/28 13:55:51;;;;;;;13.40;6.70;;;;;;;;;;10490717;28;20407;-54
2023/12/28 14:00:52;;;;;;;8.55;6.70;;;;;;;;;;10490375;28;20090;-54
2023/12/28 14:05:53;;;;;;;9.45;6.13;;;;;;;;;;10490247;28;20032;-55
2023/12/28 14:10:53;;;;;;;12.30;7.18;;;;;;;;;;10490646;28;20025;-57
2023/12/28 14:15:54;;;;;;;7.32;5.90;;;;;;;;;;10491866;28;20376;-54
2023/12/28 14:20:54;;;;;;;9.05;6.50;;;;;;;;;;10490854;28;20039;-56
2023/12/28 14:25:56;;;;;;;8.60;6.78;;;;;;;;;;10490399;28;20056;-54
2023/12/28 14:30:57;;;;;;;9.77;6.28;;;;;;;;;;10489847;28;20430;-56
2023/12/28 14:35:59;;;;;;;8.40;6.70;;;;;;;;;;10490162;28;20078;-53
2023/12/28 14:41:00;;;;;;;13.55;6.32;;;;;;;;;;10490618;28;20028;-54
2023/12/28 14:46:01;;;;;;;9.65;6.90;;;;;;;;;;10490601;28;20032;-57
2023/12/28 14:51:01;;;;;;;11.18;7.00;;;;;;;;;;10490739;28;20020;-58
2023/12/28 14:56:02;;;;;;;9.23;6.57;;;;;;;;;;10490318;28;20097;-56
2023/12/28 15:01:03;;;;;;;11.30;6.88;;;;;;;;;;10495863;28;20052;-54
2023/12/28 15:06:04;;;;;;;8.70;5.90;;;;;;;;;;10498241;28;20025;-55
2023/12/28 15:11:10;;;;;;;8.23;6.57;;;;;;;;;;10498020;28;20021;-55
2023/12/28 15:16:11;;;;;;;9.13;6.60;;;;;;;;;;10498377;28;20039;-59
2023/12/28 15:21:12;;;;;;;9.68;6.95;;;;;;;;;;10497720;28;20456;-55
2023/12/28 15:26:13;;;;;;;8.32;6.00;;;;;;;;;;10498177;28;20021;-59
2023/12/28 15:31:17;;;;;;;8.73;6.22;;;;;;;;;;10496609;28;20361;-58
2023/12/28 15:36:17;;;;;;;7.25;6.25;;;;;;;;;;10497094;28;20016;-55
2023/12/28 15:41:18;;;;;;;8.60;6.43;;;;;;;;;;10497292;28;20417;-58
2023/12/28 15:46:19;;;;;;;9.55;6.22;;;;;;;;;;10497145;28;20099;-57
2023/12/28 15:51:19;;;;;;;7.47;5.88;;;;;;;;;;10478296;28;20028;-54
2023/12/28 15:56:20;;;;;;;6.90;5.25;;;;;;;;;;10496232;28;20048;-52
2023/12/28 16:01:21;;;;;;;6.97;5.90;;;;;;;;;;10496751;28;20049;-54
2023/12/28 16:06:21;;;;;;;8.50;6.63;;;;;;;;;;10496771;28;20028;-53
2023/12/28 16:11:22;;;;;;;9.85;6.07;;;;;;;;;;10495014;28;20039;-53
2023/12/28 16:16:23;;;;;;;8.25;6.22;;;;;;;;;;10495559;28;20032;-52
2023/12/28 16:21:24;;;;;;;8.07;5.88;;;;;;;;;;10495313;28;20029;-54
2023/12/28 16:26:24;;;;;;;9.93;6.10;;;;;;;;;;10495053;28;20078;-54
2023/12/28 16:31:25;;;;;;;10.32;6.60;;;;;;;;;;10495394;28;20031;-55
2023/12/28 16:36:25;;;;;;;8.75;6.13;;;;;;;;;;10494748;28;20411;-53
2023/12/28 16:41:26;;;;;;;8.40;6.57;;;;;;;;;;10494370;28;20395;-53
2023/12/28 16:46:27;;;;;;;9.88;6.63;;;;;;;;;;10494768;28;20028;-54
2023/12/28 16:51:27;;;;;;;10.10;6.50;;;;;;;;;;10494376;28;20047;-58
2023/12/28 16:56:28;;;;;;;11.90;6.32;;;;;;;;;;10493540;28;20029;-54
2023/12/28 17:01:28;;;;;;;10.43;6.80;;;;;;;;;;10492799;28;20558;-54
2023/12/28 17:06:29;;;;;;;7.72;6.55;;;;;;;;;;10492817;28;20479;-59
2023/12/28 17:11:31;;;;;;;7.72;5.88;;;;;;;;;;10492398;28;20032;-56
2023/12/28 17:16:32;;;;;;;9.88;6.93;;;;;;;;;;10474762;28;20028;-60
2023/12/28 17:21:39;;;;;;;6.95;6.00;;;;;;;;;;10492953;28;20035;-59
2023/12/28 17:26:49;;;;;;;9.57;6.40;;;;;;;;;;10475413;28;20276;-55
2023/12/28 17:31:51;;;;;;;9.00;6.20;;;;;;;;;;10492675;28;20025;-58
2023/12/28 17:36:52;;;;;;;8.80;5.65;;;;;;;;;;10475229;28;20024;-55
2023/12/28 17:41:54;;;;;;;8.82;5.82;;;;;;;;;;10492528;28;20036;-54
2023/12/28 17:47:06;;;;;;;7.03;5.50;;;;;;;;;;10474587;28;20035;-58
2023/12/28 17:52:10;;;;;;;8.38;6.20;;;;;;;;;;10474556;28;20025;-55
2023/12/28 17:57:11;;;;;;;6.35;5.35;;;;;;;;;;10473752;28;20468;-53
2023/12/28 18:02:12;;;;;;;11.10;6.15;;;;;;;;;;10491202;28;20045;-54
2023/12/28 18:07:14;;;;;;;7.75;5.72;;;;;;;;;;10491712;28;20272;-56
2023/12/28 18:12:15;;;;;;;7.35;5.85;;;;;;;;;;10490257;28;20468;-60
2023/12/28 18:17:15;;;;;;;10.45;6.80;;;;;;;;;;10490836;28;20020;-58
2023/12/28 18:22:16;;;;;;;10.00;7.70;;;;;;;;;;10489948;28;20025;-58
2023/12/28 18:27:17;;;;;;;13.88;7.63;;;;;;;;;;10489787;28;20491;-60
2023/12/28 18:32:18;;;;;;;11.90;7.57;;;;;;;;;;10485550;28;20109;-55
2023/12/28 18:37:21;;;;;;;12.30;8.10;;;;;;;;;;10488723;28;20031;-54
2023/12/28 18:42:21;;;;;;;10.95;8.02;;;;;;;;;;10490717;28;20253;-54
2023/12/28 18:47:22;;;;;;;12.30;8.10;;;;;;;;;;10489830;28;20607;-51
2023/12/28 18:52:22;;;;;;;11.80;8.50;;;;;;;;;;10489552;28;20033;-56
2023/12/28 18:57:23;;;;;;;12.50;8.10;;;;;;;;;;10489989;28;20098;-54
2023/12/28 19:02:25;;;;;;;11.18;8.38;;;;;;;;;;10489478;28;20045;-54
2023/12/28 19:07:26;;;;;;;12.00;8.48;;;;;;;;;;10488288;28;20515;-54
2023/12/28 19:12:27;;;;;;;12.70;8.90;;;;;;;;;;10488803;28;20028;-54
2023/12/28 19:17:28;;;;;;;14.57;8.88;;;;;;;;;;10489444;28;20027;-55
2023/12/28 19:22:29;;;;;;;15.23;9.88;;;;;;;;;;10489482;28;20028;-55
2023/12/28 19:27:30;;;;;;;17.23;9.57;;;;;;;;;;10489683;28;20032;-56
2023/12/28 19:32:30;;;;;;;13.75;9.40;;;;;;;;;;10489394;28;20484;-55
2023/12/28 19:37:32;;;;;;;19.52;9.68;;;;;;;;;;10488249;28;20452;-57
2023/12/28 19:42:33;;;;;;;13.45;9.32;;;;;;;;;;10489535;28;20032;-54
2023/12/28 19:47:34;;;;;;;15.25;9.65;;;;;;;;;;10495406;28;20094;-58
2023/12/28 19:52:34;;;;;;;12.65;9.07;;;;;;;;;;10493670;28;20028;-54
2023/12/28 19:57:35;;;;;;;14.43;9.18;;;;;;;;;;10495194;28;20025;-58
2023/12/28 20:02:35;;;;;;;12.02;9.13;;;;;;;;;;10494910;28;20175;-54
2023/12/28 20:07:36;;;;;;;14.07;9.80;;;;;;;;;;10495416;28;20036;-54
2023/12/28 20:12:36;;;;;;;13.63;9.68;;;;;;;;;;10495071;28;20484;-53
2023/12/28 20:17:37;;;;;;;15.95;10.15;;;;;;;;;;10494761;28;20380;-54
2023/12/28 20:22:37;;;;;;;14.48;10.65;;;;;;;;;;10493108;28;20024;-55
2023/12/28 20:27:38;;;;;;;20.83;11.48;;;;;;;;;;10493335;28;20028;-55
2023/12/28 20:32:39;;;;;;;19.90;11.65;;;;;;;;;;10495639;28;20128;-51
2023/12/28 20:37:40;;;;;;;26.33;12.18;;;;;;;;;;10493303;28;20397;-55
2023/12/28 20:42:41;;;;;;;26.50;11.95;;;;;;;;;;10494051;28;20024;-55
2023/12/28 20:47:41;;;;;;;21.42;12.80;;;;;;;;;;10493737;28;20476;-55
2023/12/28 20:52:42;;;;;;;24.02;13.02;;;;;;;;;;10493479;28;20040;-54
2023/12/28 20:57:43;;;;;;;19.60;12.52;;;;;;;;;;10492175;28;20033;-58
2023/12/28 21:02:43;;;;;;;28.75;13.88;;;;;;;;;;10493512;28;20048;-55
2023/12/28 21:07:44;;;;;;;19.25;12.65;;;;;;;;;;10493384;28;20427;-54
2023/12/28 21:12:50;;;;;;;22.63;12.95;;;;;;;;;;10493167;28;20032;-55
2023/12/28 21:17:51;;;;;;;21.17;13.63;;;;;;;;;;10492751;28;20067;-55
2023/12/28 21:22:52;;;;;;;22.27;13.68;;;;;;;;;;10492531;28;20480;-55
2023/12/28 21:27:53;;;;;;;21.65;13.30;;;;;;;;;;10491723;28;20027;-54
2023/12/28 21:32:54;;;;;;;31.00;13.35;;;;;;;;;;10490359;28;20020;-56
2023/12/28 21:37:54;;;;;;;21.75;12.65;;;;;;;;;;10490929;28;20035;-56
2023/12/28 21:42:55;;;;;;;18.98;13.07;;;;;;;;;;10491610;28;20387;-55
2023/12/28 21:47:56;;;;;;;24.65;13.07;;;;;;;;;;10490698;28;20419;-55
2023/12/28 21:52:57;;;;;;;18.38;11.88;;;;;;;;;;10491850;28;20035;-55
2023/12/28 21:58:00;;;;;;;18.85;12.13;;;;;;;;;;10490888;28;20580;-55
2023/12/28 22:03:01;;;;;;;19.80;12.60;;;;;;;;;;10491418;28;20122;-56
2023/12/28 22:08:02;;;;;;;23.35;12.65;;;;;;;;;;10489647;28;20032;-55
2023/12/28 22:13:03;;;;;;;36.53;12.98;;;;;;;;;;10489616;28;20113;-54
2023/12/28 22:18:06;;;;;;;27.00;12.93;;;;;;;;;;10489570;28;20464;-55
2023/12/28 22:23:06;;;;;;;25.08;12.63;;;;;;;;;;10486886;28;20502;-56
2023/12/28 22:28:07;;;;;;;24.60;11.88;;;;;;;;;;10486581;28;20032;-56
2023/12/28 22:33:08;;;;;;;22.67;11.68;;;;;;;;;;10488823;28;20025;-55
2023/12/28 22:38:08;;;;;;;18.70;12.10;;;;;;;;;;10488060;28;20491;-61
2023/12/28 22:43:09;;;;;;;22.65;12.52;;;;;;;;;;10491242;28;20032;-59
2023/12/28 22:48:09;;;;;;;23.33;12.40;;;;;;;;;;10489940;28;20218;-59
2023/12/28 22:53:10;;;;;;;26.30;11.70;;;;;;;;;;10489504;28;20028;-59
2023/12/28 22:58:11;;;;;;;23.55;11.93;;;;;;;;;;10489663;28;20052;-59
2023/12/28 23:03:11;;;;;;;21.60;12.07;;;;;;;;;;10489903;28;20036;-56
2023/12/28 23:08:12;;;;;;;26.98;14.27;;;;;;;;;;10489172;28;20032;-54
2023/12/28 23:13:13;;;;;;;28.08;13.68;;;;;;;;;;10489426;28;20040;-54
2023/12/28 23:18:15;;;;;;;26.60;14.13;;;;;;;;;;10489614;28;20028;-55
2023/12/28 23:23:16;;;;;;;22.08;13.55;;;;;;;;;;10497069;28;20036;-58
2023/12/28 23:28:16;;;;;;;27.52;14.68;;;;;;;;;;10497885;28;20033;-55
2023/12/28 23:33:17;;;;;;;22.92;14.32;;;;;;;;;;10497322;28;20036;-54
2023/12/28 23:38:17;;;;;;;22.38;13.93;;;;;;;;;;10497190;28;20036;-56
2023/12/28 23:43:18;;;;;;;27.08;14.18;;;;;;;;;;10496890;28;20032;-58
2023/12/28 23:48:18;;;;;;;23.15;14.63;;;;;;;;;;10497123;28;20039;-59
2023/12/28 23:53:19;;;;;;;22.02;13.88;;;;;;;;;;10495407;28;20024;-58
2023/12/28 23:58:21;;;;;;;20.95;13.57;;;;;;;;;;10495673;28;20047;-59
